Time;durP1;ratioP1;P1;durP2;ratioP2;P2;SDS_P1;SDS_P2;PMS_P1;PMS_P2;Temp;Humidity;BMP_temperature;BMP_pressure;BME280_temperature;BME280_humidity;BME280_pressure;Samples;Min_cycle;Max_cycle;Signal;HPM_P1;HPM_P2
2023/04/14 00:00:11;;;;;;;5.82;3.30;;;;;;;4.04;100.00;94989.34;1043177;28;20029;-72
2023/04/14 00:00:42;;;;;;;7.18;3.40;;;;;;;4.07;100.00;94986.28;1034792;28;20518;-70
2023/04/14 00:01:15;;;;;;;5.88;3.28;;;;;;;3.99;100.00;94982.28;1034913;28;20022;-72
2023/04/14 00:01:47;;;;;;;4.70;3.40;;;;;;;4.00;100.00;94983.84;1027292;28;20509;-69
2023/04/14 00:02:18;;;;;;;7.30;2.92;;;;;;;4.04;100.00;94989.34;1028315;28;20768;-71
2023/04/14 00:02:48;;;;;;;8.02;2.90;;;;;;;4.05;100.00;94990.13;1031613;28;20273;-72
2023/04/14 00:03:19;;;;;;;7.47;3.05;;;;;;;4.04;100.00;94984.16;1031206;28;20042;-71
2023/04/14 00:03:50;;;;;;;8.10;3.15;;;;;;;4.04;100.00;94983.38;1031128;28;20463;-72
2023/04/14 00:04:21;;;;;;;7.18;3.28;;;;;;;4.03;100.00;94981.81;1030928;28;20555;-71
2023/04/14 00:04:52;;;;;;;8.30;3.15;;;;;;;3.99;100.00;94987.47;1031182;28;20270;-71
2023/04/14 00:05:22;;;;;;;6.03;2.92;;;;;;;4.00;100.00;94989.03;1036242;28;20033;-72
2023/04/14 00:05:53;;;;;;;3.45;2.60;;;;;;;4.00;100.00;94989.03;1038890;28;20314;-71
2023/04/14 00:06:23;;;;;;;8.07;3.20;;;;;;;3.98;100.00;94985.09;1044817;28;20704;-70
2023/04/14 00:06:57;;;;;;;4.32;2.92;;;;;;;4.01;100.00;94982.03;1039283;28;20022;-73
2023/04/14 00:07:27;;;;;;;7.30;3.15;;;;;;;4.02;100.00;94981.00;1042967;28;20021;-69
2023/04/14 00:07:58;;;;;;;5.88;2.75;;;;;;;3.98;100.00;94985.88;1040567;28;20959;-71
2023/04/14 00:08:28;;;;;;;6.15;2.60;;;;;;;3.98;100.00;94985.09;1038911;28;20047;-71
2023/04/14 00:08:59;;;;;;;5.28;3.10;;;;;;;3.99;100.00;94984.88;1037835;28;20021;-71
2023/04/14 00:09:29;;;;;;;8.60;2.80;;;;;;;3.99;100.00;94986.66;1039162;28;20036;-71
2023/04/14 00:10:00;;;;;;;3.83;2.60;;;;;;;3.96;100.00;94982.75;1038808;28;20026;-71
2023/04/14 00:10:31;;;;;;;4.35;2.75;;;;;;;3.96;100.00;94980.16;1038865;28;20554;-71
2023/04/14 00:11:01;;;;;;;5.95;2.75;;;;;;;3.87;100.00;94971.22;1043150;28;20029;-69
2023/04/14 00:11:32;;;;;;;5.55;3.03;;;;;;;3.96;100.00;94982.75;1038946;28;20264;-71
2023/04/14 00:12:02;;;;;;;6.15;2.97;;;;;;;3.96;100.00;94990.53;1043086;28;20025;-71
2023/04/14 00:12:32;;;;;;;6.35;2.83;;;;;;;3.95;100.00;94991.56;1043037;28;20545;-72
2023/04/14 00:13:03;;;;;;;4.97;2.70;;;;;;;3.94;100.00;94979.59;1043099;28;20021;-71
2023/04/14 00:13:33;;;;;;;5.97;2.72;;;;;;;3.88;100.00;94977.19;1043176;28;20072;-71
2023/04/14 00:14:04;;;;;;;6.50;2.60;;;;;;;3.92;100.00;94989.47;1030635;28;20540;-70
2023/04/14 00:14:35;;;;;;;3.30;2.42;;;;;;;3.94;100.00;94984.00;1030045;28;20034;-71
2023/04/14 00:15:06;;;;;;;3.45;3.00;;;;;;;3.96;100.00;94982.75;1032496;28;20257;-71
2023/04/14 00:15:36;;;;;;;4.88;2.67;;;;;;;3.92;100.00;94989.47;1030514;28;20054;-71
2023/04/14 00:16:07;;;;;;;5.80;2.78;;;;;;;3.92;100.00;94983.47;1030087;28;20519;-72
2023/04/14 00:16:38;;;;;;;6.07;2.40;;;;;;;3.82;100.00;94973.72;1034877;28;20022;-71
2023/04/14 00:17:08;;;;;;;5.93;2.50;;;;;;;3.84;100.00;94974.28;1030717;28;20034;-71
2023/04/14 00:17:39;;;;;;;6.78;2.78;;;;;;;3.91;100.00;94981.91;1030801;28;20687;-71
2023/04/14 00:18:09;;;;;;;5.63;2.17;;;;;;;3.90;100.00;94988.91;1034813;28;20029;-72
2023/04/14 00:18:40;;;;;;;3.45;2.22;;;;;;;3.87;100.00;94991.19;1034840;28;20452;-71
2023/04/14 00:19:10;;;;;;;4.85;2.42;;;;;;;3.81;100.00;94973.97;1039032;28;20057;-71
2023/04/14 00:19:41;;;;;;;5.00;3.00;;;;;;;3.84;100.00;94976.09;1042953;28;20471;-72
2023/04/14 00:20:11;;;;;;;5.63;3.05;;;;;;;3.88;100.00;94984.97;1035167;28;20030;-71
2023/04/14 00:20:42;;;;;;;3.35;2.47;;;;;;;3.92;100.00;94984.28;1040494;28;20650;-71
2023/04/14 00:21:13;;;;;;;5.75;2.33;;;;;;;3.90;100.00;94983.72;1041115;28;20025;-71
2023/04/14 00:21:43;;;;;;;6.88;2.22;;;;;;;3.89;100.00;94984.75;1038934;28;20045;-71
2023/04/14 00:22:13;;;;;;;6.53;2.67;;;;;;;3.90;100.00;94991.50;1043104;28;20028;-71
2023/04/14 00:22:44;;;;;;;6.28;2.45;;;;;;;3.88;100.00;94985.75;1047026;28;20043;-71
2023/04/14 00:23:14;;;;;;;7.70;2.70;;;;;;;3.83;100.00;94988.28;1039216;28;20103;-71
2023/04/14 00:23:45;;;;;;;5.75;2.70;;;;;;;3.84;100.00;94984.66;1034748;28;20028;-72
2023/04/14 00:24:15;;;;;;;5.57;2.88;;;;;;;3.84;100.00;94989.06;1034774;28;20022;-71
2023/04/14 00:24:46;;;;;;;4.40;2.58;;;;;;;3.87;100.00;94988.59;1029074;28;20744;-71
2023/04/14 00:25:16;;;;;;;6.30;3.05;;;;;;;3.82;100.00;94985.91;1030852;28;20490;-70
2023/04/14 00:25:48;;;;;;;4.82;2.80;;;;;;;3.80;100.00;94980.97;1030899;28;20086;-71
2023/04/14 00:26:18;;;;;;;5.72;2.50;;;;;;;3.84;100.00;94989.84;1028815;28;20114;-71
2023/04/14 00:26:49;;;;;;;5.38;2.55;;;;;;;3.85;100.00;94991.41;1038990;28;20264;-71
2023/04/14 00:27:19;;;;;;;3.20;2.25;;;;;;;3.81;100.00;94985.13;1039499;28;20022;-71
2023/04/14 00:27:50;;;;;;;8.32;3.03;;;;;;;3.86;100.00;94987.81;1038549;28;20026;-71
2023/04/14 00:28:20;;;;;;;3.83;2.38;;;;;;;3.82;100.00;94981.50;1026621;28;20037;-71
2023/04/14 00:28:51;;;;;;;4.93;2.90;;;;;;;3.87;100.00;94983.41;1034899;28;20559;-71
2023/04/14 00:29:21;;;;;;;3.88;2.20;;;;;;;3.88;100.00;94985.75;1030823;28;20718;-72
2023/04/14 00:29:52;;;;;;;5.35;2.67;;;;;;;3.81;100.00;94973.97;1030866;28;20034;-71
2023/04/14 00:30:22;;;;;;;6.65;2.88;;;;;;;3.89;100.00;94987.34;1026574;28;20026;-71
2023/04/14 00:30:53;;;;;;;4.05;2.55;;;;;;;3.89;100.00;94987.34;1034824;28;20555;-72
2023/04/14 00:31:23;;;;;;;12.00;3.75;;;;;;;3.92;100.00;94986.06;1038732;28;20021;-71
2023/04/14 00:31:54;;;;;;;4.50;2.72;;;;;;;3.90;100.00;94985.53;1039031;28;20063;-71
2023/04/14 00:32:24;;;;;;;7.75;2.72;;;;;;;3.92;100.00;94986.06;1047022;28;20025;-71
2023/04/14 00:32:55;;;;;;;5.95;2.78;;;;;;;3.87;100.00;94989.38;1039042;28;20025;-71
2023/04/14 00:33:25;;;;;;;6.63;3.08;;;;;;;3.88;100.00;94993.53;1043023;28;20131;-71
2023/04/14 00:33:56;;;;;;;4.65;2.30;;;;;;;3.83;100.00;94988.28;1034824;28;20030;-71
2023/04/14 00:34:26;;;;;;;3.83;2.60;;;;;;;3.88;100.00;94988.34;1034425;28;20026;-71
2023/04/14 00:34:58;;;;;;;3.85;2.50;;;;;;;3.85;100.00;94981.03;1034056;28;20025;-71
2023/04/14 00:35:30;;;;;;;3.38;2.38;;;;;;;3.83;100.00;94985.69;1039005;28;20044;-71
2023/04/14 00:36:01;;;;;;;3.97;2.08;;;;;;;3.83;100.00;94988.28;1034586;28;20272;-71
2023/04/14 00:36:31;;;;;;;4.03;2.30;;;;;;;3.85;100.00;94986.22;1036920;28;20654;-72
2023/04/14 00:37:02;;;;;;;6.05;2.70;;;;;;;3.86;100.00;94981.84;1042868;28;20034;-71
2023/04/14 00:37:32;;;;;;;9.48;2.83;;;;;;;3.85;100.00;94986.22;1038667;28;20029;-71
2023/04/14 00:38:03;;;;;;;5.03;3.03;;;;;;;3.84;100.00;94984.66;1035247;28;20053;-71
2023/04/14 00:38:33;;;;;;;5.45;2.63;;;;;;;3.83;100.00;94983.09;1038876;28;20723;-71
2023/04/14 00:39:03;;;;;;;4.45;2.53;;;;;;;3.87;100.00;94979.00;1034756;28;20037;-71
2023/04/14 00:39:34;;;;;;;4.70;3.00;;;;;;;3.83;100.00;94977.91;1034921;28;20041;-71
2023/04/14 00:40:07;;;;;;;3.67;2.35;;;;;;;3.85;100.00;94986.22;1034568;28;20025;-71
2023/04/14 00:40:37;;;;;;;8.50;4.28;;;;;;;3.83;100.00;94990.88;1030865;28;20070;-70
2023/04/14 00:41:07;;;;;;;3.65;3.00;;;;;;;3.88;100.00;94983.16;1034723;28;20265;-71
2023/04/14 00:41:38;;;;;;;6.47;2.72;;;;;;;3.82;100.00;94984.09;1032434;28;20041;-71
2023/04/14 00:42:08;;;;;;;7.22;2.78;;;;;;;3.82;100.00;94978.91;1031061;28;20033;-71
2023/04/14 00:42:42;;;;;;;3.40;2.80;;;;;;;3.76;100.00;94977.28;1038738;28;20033;-71
2023/04/14 00:43:17;;;;;;;7.55;3.38;;;;;;;3.85;100.00;94988.03;1040119;28;20028;-71
2023/04/14 00:43:51;;;;;;;7.15;3.00;;;;;;;3.82;100.00;94989.28;1038969;28;20267;-71
2023/04/14 00:44:22;;;;;;;4.40;2.58;;;;;;;3.87;100.00;94994.56;1034701;28;21052;-71
2023/04/14 00:44:52;;;;;;;4.07;2.80;;;;;;;3.86;100.00;94998.19;1030576;28;20281;-71
2023/04/14 00:45:24;;;;;;;6.05;3.17;;;;;;;3.85;100.00;94994.00;1034684;28;20272;-71
2023/04/14 00:45:54;;;;;;;5.85;3.28;;;;;;;3.82;100.00;94989.28;1034419;28;20045;-71
2023/04/14 00:46:25;;;;;;;7.07;3.38;;;;;;;3.85;100.00;94991.41;1026743;28;20262;-71
2023/04/14 00:46:55;;;;;;;5.13;2.72;;;;;;;3.87;100.00;94993.78;1029863;28;20030;-70
2023/04/14 00:47:26;;;;;;;6.28;2.80;;;;;;;3.87;100.00;94998.97;1026352;28;20031;-72
2023/04/14 00:47:56;;;;;;;6.47;3.08;;;;;;;3.88;100.00;94995.34;1035022;28;20038;-71
2023/04/14 00:48:27;;;;;;;5.15;3.13;;;;;;;3.89;100.00;94996.91;1036683;28;20034;-71
2023/04/14 00:48:57;;;;;;;5.32;3.70;;;;;;;3.86;100.00;94997.41;1030911;28;20018;-71
2023/04/14 00:49:28;;;;;;;7.90;3.25;;;;;;;3.76;100.00;94991.03;1030702;28;20065;-71
2023/04/14 00:49:58;;;;;;;6.78;3.17;;;;;;;3.82;100.00;94997.06;1038557;28;20621;-70
2023/04/14 00:50:29;;;;;;;5.82;3.10;;;;;;;3.84;100.00;94994.25;1034965;28;20049;-72
2023/04/14 00:51:00;;;;;;;8.55;3.20;;;;;;;3.84;100.00;94994.25;1038816;28;20765;-71
2023/04/14 00:51:31;;;;;;;7.70;2.63;;;;;;;3.88;100.00;94997.94;1026725;28;20432;-69
2023/04/14 00:52:02;;;;;;;5.53;3.38;;;;;;;3.86;100.00;94993.00;1030277;28;20352;-70
2023/04/14 00:52:32;;;;;;;7.15;3.22;;;;;;;3.85;100.00;94996.59;1026675;28;20031;-71
2023/04/14 00:53:03;;;;;;;6.15;2.92;;;;;;;3.85;100.00;94991.41;1026918;28;20258;-69
2023/04/14 00:53:34;;;;;;;4.88;3.28;;;;;;;3.78;100.00;94988.97;1028586;28;20031;-71
2023/04/14 00:54:04;;;;;;;6.72;3.08;;;;;;;3.84;100.00;94999.44;1034861;28;20030;-71
2023/04/14 00:54:35;;;;;;;6.97;2.90;;;;;;;3.85;100.00;94991.41;1026411;28;20046;-71
2023/04/14 00:55:06;;;;;;;8.40;3.28;;;;;;;3.81;100.00;94984.34;1039176;28;20467;-71
2023/04/14 00:55:36;;;;;;;5.35;3.13;;;;;;;3.82;100.00;94991.09;1038449;28;20612;-72
2023/04/14 00:56:07;;;;;;;6.45;3.63;;;;;;;3.87;100.00;94997.16;1026679;28;20289;-70
2023/04/14 00:56:37;;;;;;;7.65;3.25;;;;;;;3.86;100.00;94993.00;1034516;28;20038;-71
2023/04/14 00:57:08;;;;;;;11.32;3.75;;;;;;;3.86;100.00;94994.81;1034858;28;20024;-70
2023/04/14 00:57:38;;;;;;;5.93;3.22;;;;;;;3.86;100.00;94994.81;1034383;28;20029;-71
2023/04/14 00:58:09;;;;;;;4.80;3.42;;;;;;;3.82;100.00;94986.69;1030671;28;20014;-71
2023/04/14 00:58:40;;;;;;;5.68;4.03;;;;;;;3.89;100.00;94987.34;1030572;28;20025;-71
2023/04/14 00:59:10;;;;;;;6.05;3.03;;;;;;;3.87;100.00;94997.16;1035045;28;20541;-71
2023/04/14 00:59:41;;;;;;;7.72;3.30;;;;;;;3.90;100.00;94988.13;1034583;28;20033;-70
2023/04/14 01:00:12;;;;;;;9.90;4.22;;;;;;;3.88;100.00;94997.94;1035268;28;20092;-71
2023/04/14 01:00:43;;;;;;;5.68;3.40;;;;;;;3.85;100.00;94988.03;1034739;28;20081;-71
2023/04/14 01:01:13;;;;;;;5.40;3.25;;;;;;;3.82;100.00;94985.91;1031089;28;20257;-71
2023/04/14 01:01:44;;;;;;;5.25;3.03;;;;;;;3.86;100.00;94998.19;1030479;28;20018;-69
2023/04/14 01:02:14;;;;;;;7.70;3.03;;;;;;;3.78;100.00;94985.59;1029992;28;20030;-71
2023/04/14 01:02:45;;;;;;;7.68;3.03;;;;;;;3.85;100.00;94993.22;1026752;28;20117;-70
2023/04/14 01:03:15;;;;;;;5.55;3.30;;;;;;;3.79;100.00;94987.19;1026692;28;20030;-71
2023/04/14 01:03:46;;;;;;;9.60;3.20;;;;;;;3.80;100.00;94982.78;1028500;28;20069;-70
2023/04/14 01:04:16;;;;;;;6.95;3.20;;;;;;;3.70;100.00;94979.03;1031132;28;20057;-71
2023/04/14 01:04:47;;;;;;;5.45;3.30;;;;;;;3.86;100.00;94995.59;1033977;28;20021;-71
2023/04/14 01:05:17;;;;;;;5.47;3.67;;;;;;;3.84;100.00;94992.44;1027109;28;20038;-71
2023/04/14 01:05:47;;;;;;;6.18;3.80;;;;;;;3.82;100.00;94998.88;1034512;28;20533;-71
2023/04/14 01:06:18;;;;;;;8.23;4.07;;;;;;;3.87;100.00;95001.56;1030856;28;20014;-68
2023/04/14 01:06:49;;;;;;;8.00;3.30;;;;;;;3.88;100.00;95000.53;1034787;28;20025;-71
2023/04/14 01:07:20;;;;;;;4.07;2.97;;;;;;;3.83;100.00;94996.06;1033909;28;20029;-72
2023/04/14 01:07:50;;;;;;;7.15;3.53;;;;;;;3.86;100.00;95003.38;1037588;28;20029;-71
2023/04/14 01:08:21;;;;;;;4.55;2.97;;;;;;;3.87;100.00;94994.56;1038946;28;20338;-71
2023/04/14 01:08:51;;;;;;;6.95;3.33;;;;;;;3.84;100.00;94997.63;1034422;28;20101;-71
2023/04/14 01:09:21;;;;;;;5.32;3.45;;;;;;;3.77;100.00;94989.22;1026907;28;20015;-71
2023/04/14 01:09:53;;;;;;;5.13;3.63;;;;;;;3.83;100.00;94995.28;1018600;29;20024;-72
2023/04/14 01:10:24;;;;;;;7.63;4.15;;;;;;;3.85;100.00;95001.00;1031164;28;20026;-69
2023/04/14 01:11:36;;;;;;;7.28;3.42;;;;;;;3.87;100.00;94993.78;1034630;28;20253;-72
2023/04/14 01:12:30;;;;;;;6.03;3.58;;;;;;;3.87;100.00;94986.78;1022062;29;20281;-71
2023/04/14 01:13:22;;;;;;;5.28;3.13;;;;;;;3.82;100.00;94986.69;1026413;28;20270;-72
2023/04/14 01:14:12;;;;;;;6.05;3.08;;;;;;;3.88;100.00;94988.34;1026328;28;20329;-71
2023/04/14 01:15:11;;;;;;;6.22;3.95;;;;;;;3.84;100.00;94983.88;1026248;28;20282;-69
2023/04/14 01:16:04;;;;;;;7.10;3.50;;;;;;;3.87;100.00;94989.38;1037793;28;20029;-69
2023/04/14 01:16:39;;;;;;;7.80;3.38;;;;;;;3.86;100.00;94982.63;1038221;28;20625;-71
2023/04/14 01:17:20;;;;;;;7.90;3.90;;;;;;;3.86;100.00;94985.22;1033663;28;20264;-70
2023/04/14 01:18:08;;;;;;;6.05;3.65;;;;;;;3.89;100.00;94997.72;1034526;28;20291;-70
2023/04/14 01:18:49;;;;;;;6.90;3.38;;;;;;;3.85;100.00;94991.41;1038519;28;20637;-71
2023/04/14 01:19:42;;;;;;;6.93;3.90;;;;;;;3.77;100.00;94981.44;1030761;28;20272;-70
2023/04/14 01:20:32;;;;;;;5.82;3.33;;;;;;;3.82;100.00;94991.09;1038613;28;20260;-71
2023/04/14 01:21:05;;;;;;;4.07;2.97;;;;;;;3.75;100.00;94984.25;1044270;28;20260;-71
2023/04/14 01:21:37;;;;;;;7.53;3.72;;;;;;;3.82;100.00;94994.47;1042889;28;21044;-70
2023/04/14 01:22:08;;;;;;;9.38;3.63;;;;;;;3.80;100.00;94993.16;1034507;28;20257;-71
2023/04/14 01:22:45;;;;;;;6.80;3.40;;;;;;;3.82;100.00;94996.28;1034412;28;21086;-71
2023/04/14 01:23:22;;;;;;;5.55;3.67;;;;;;;3.81;100.00;94995.50;1030550;28;20294;-70
2023/04/14 01:24:21;;;;;;;9.68;3.60;;;;;;;3.75;100.00;94991.28;1040670;28;20256;-72
2023/04/14 01:25:13;;;;;;;11.27;3.78;;;;;;;3.77;100.00;94992.59;1036715;28;20408;-71
2023/04/14 01:26:15;;;;;;;6.70;3.55;;;;;;;3.78;100.00;94993.38;1030562;28;20249;-71
2023/04/14 01:26:46;;;;;;;8.48;3.22;;;;;;;3.76;100.00;94995.47;1041655;28;20673;-72
2023/04/14 01:27:39;;;;;;;9.45;3.78;;;;;;;3.72;100.00;94987.38;1034880;28;20252;-72
2023/04/14 01:28:47;;;;;;;7.22;3.42;;;;;;;3.75;100.00;94993.88;1041450;28;20512;-72
2023/04/14 01:29:39;;;;;;;7.80;4.22;;;;;;;3.72;100.00;94996.94;1042767;28;20309;-72
2023/04/14 01:30:24;;;;;;;5.03;3.35;;;;;;;3.71;100.00;95000.56;1038462;28;20263;-71
2023/04/14 01:31:12;;;;;;;5.93;3.47;;;;;;;3.63;100.00;94990.59;1034294;28;20678;-71
2023/04/14 01:32:05;;;;;;;8.95;3.88;;;;;;;3.68;100.00;94996.63;1034826;28;20271;-71
2023/04/14 01:32:35;;;;;;;7.00;3.60;;;;;;;3.62;100.00;94986.41;1042874;28;20749;-71
2023/04/14 01:33:06;;;;;;;8.13;3.10;;;;;;;3.63;100.00;94985.41;1038383;28;20264;-71
2023/04/14 01:33:37;;;;;;;5.88;3.50;;;;;;;3.68;100.00;94996.63;1034565;28;20018;-71
2023/04/14 01:34:28;;;;;;;8.50;3.58;;;;;;;3.69;100.00;94997.41;1030563;28;20022;-71
2023/04/14 01:35:16;;;;;;;6.82;4.22;;;;;;;3.68;100.00;94998.44;1033257;28;20769;-72
2023/04/14 01:35:52;;;;;;;9.68;3.55;;;;;;;3.64;100.00;94994.75;1035441;28;20040;-71
2023/04/14 01:36:26;;;;;;;6.78;4.07;;;;;;;3.63;100.00;94993.97;1030875;28;20276;-71
2023/04/14 01:36:57;;;;;;;5.75;3.70;;;;;;;3.60;100.00;94984.06;1030039;28;20269;-72
2023/04/14 01:37:30;;;;;;;7.50;3.80;;;;;;;3.65;100.00;94996.31;1026359;28;20251;-71
2023/04/14 01:38:03;;;;;;;7.50;3.72;;;;;;;3.54;100.00;94980.59;1027547;28;20833;-71
2023/04/14 01:38:34;;;;;;;6.03;3.67;;;;;;;3.65;100.00;95001.50;1030536;28;20283;-70
2023/04/14 01:39:05;;;;;;;6.15;3.42;;;;;;;3.66;100.00;94998.69;1034464;28;20264;-71
2023/04/14 01:39:38;;;;;;;7.15;3.83;;;;;;;3.63;100.00;94993.19;1030428;28;20026;-71
2023/04/14 01:40:11;;;;;;;6.35;3.67;;;;;;;3.63;100.00;94988.00;1030226;28;20026;-71
2023/04/14 01:40:41;;;;;;;8.15;3.80;;;;;;;3.61;100.00;94990.81;1038481;28;20270;-71
2023/04/14 01:41:12;;;;;;;8.60;3.85;;;;;;;3.66;100.00;94997.91;1034615;28;20273;-72
2023/04/14 01:41:45;;;;;;;6.30;4.60;;;;;;;3.68;100.00;94999.22;1028718;28;20033;-71
2023/04/14 01:42:18;;;;;;;6.32;3.90;;;;;;;3.69;100.00;94995.63;1038738;28;20068;-71
2023/04/14 01:43:01;;;;;;;6.63;3.63;;;;;;;3.61;100.00;94992.63;1038636;28;20260;-72
2023/04/14 01:43:33;;;;;;;8.10;3.70;;;;;;;3.63;100.00;94995.78;1030351;28;20265;-71
2023/04/14 01:44:04;;;;;;;7.88;3.88;;;;;;;3.63;100.00;94993.97;1022435;29;20305;-72
2023/04/14 01:44:34;;;;;;;6.20;3.53;;;;;;;3.65;100.00;94996.31;1025914;28;20308;-71
2023/04/14 01:45:18;;;;;;;9.48;4.20;;;;;;;3.69;100.00;94994.81;1034305;28;20399;-71
2023/04/14 01:45:50;;;;;;;11.13;4.57;;;;;;;3.66;100.00;94983.13;1030307;28;20022;-71
2023/04/14 01:46:20;;;;;;;7.07;3.92;;;;;;;3.69;100.00;94994.81;1034661;28;20269;-71
2023/04/14 01:46:54;;;;;;;10.95;4.05;;;;;;;3.65;100.00;94991.13;1024922;28;20991;-70
2023/04/14 01:47:25;;;;;;;6.25;3.83;;;;;;;3.68;100.00;94998.44;1022465;29;20051;-71
2023/04/14 01:47:55;;;;;;;13.18;4.45;;;;;;;3.65;100.00;94985.94;1022526;29;20266;-71
2023/04/14 01:48:26;;;;;;;7.25;4.03;;;;;;;3.66;100.00;94992.72;1028585;28;20026;-71
2023/04/14 01:48:56;;;;;;;4.88;3.40;;;;;;;3.67;100.00;94978.72;1026416;28;20023;-71
2023/04/14 01:49:27;;;;;;;5.97;4.18;;;;;;;3.65;100.00;94989.31;1030464;28;20018;-71
2023/04/14 01:49:57;;;;;;;7.88;3.80;;;;;;;3.62;100.00;94989.00;1030525;28;20014;-72
2023/04/14 01:50:28;;;;;;;6.55;3.80;;;;;;;3.68;100.00;94994.03;1034434;28;20026;-72
2023/04/14 01:50:59;;;;;;;6.47;3.90;;;;;;;3.68;100.00;94999.22;1034369;28;20044;-72
2023/04/14 01:51:30;;;;;;;8.85;4.10;;;;;;;3.64;100.00;94990.34;1034445;28;20513;-71
2023/04/14 01:52:01;;;;;;;8.30;3.85;;;;;;;3.65;100.00;94991.13;1026142;28;20759;-71
2023/04/14 01:52:31;;;;;;;7.03;3.65;;;;;;;3.67;100.00;94996.88;1022509;29;20312;-71
2023/04/14 01:53:04;;;;;;;8.52;4.03;;;;;;;3.68;100.00;94993.25;1026519;28;20019;-71
2023/04/14 01:53:36;;;;;;;6.47;3.80;;;;;;;3.64;100.00;94992.16;1028358;28;20026;-72
2023/04/14 01:54:07;;;;;;;8.68;3.80;;;;;;;3.71;100.00;95000.56;1030191;28;21026;-72
2023/04/14 01:54:38;;;;;;;6.82;3.60;;;;;;;3.66;100.00;94992.72;1038091;28;20304;-71
2023/04/14 01:55:09;;;;;;;7.57;3.83;;;;;;;3.68;100.00;94991.44;1031663;28;20266;-72
2023/04/14 01:55:40;;;;;;;7.05;3.67;;;;;;;3.68;100.00;94995.84;1038827;28;20260;-72
2023/04/14 01:56:10;;;;;;;6.57;4.03;;;;;;;3.65;100.00;94988.53;1038231;28;20115;-72
2023/04/14 01:56:41;;;;;;;14.00;4.13;;;;;;;3.71;100.00;95000.56;1038556;28;20029;-70
2023/04/14 01:57:11;;;;;;;11.25;4.60;;;;;;;3.64;100.00;94985.16;1042582;28;20437;-71
2023/04/14 01:57:43;;;;;;;9.05;3.95;;;;;;;3.69;100.00;94997.41;1034450;28;20041;-70
2023/04/14 01:58:13;;;;;;;9.05;3.80;;;;;;;3.61;100.00;94987.44;1033900;28;20463;-71
2023/04/14 01:58:44;;;;;;;7.40;3.83;;;;;;;3.70;100.00;94999.00;1034418;28;20257;-71
2023/04/14 01:59:15;;;;;;;11.05;4.55;;;;;;;3.63;100.00;94988.78;1030626;28;20023;-72
2023/04/14 01:59:45;;;;;;;7.93;3.83;;;;;;;3.63;100.00;94986.19;1030474;28;20261;-71
2023/04/14 02:00:16;;;;;;;8.15;4.38;;;;;;;3.65;100.00;94997.09;1023616;28;20949;-71
2023/04/14 02:00:48;;;;;;;8.65;4.15;;;;;;;3.65;100.00;94996.31;1022695;28;20027;-72
2023/04/14 02:01:18;;;;;;;6.00;3.50;;;;;;;3.67;100.00;94999.47;1034620;28;20692;-72
2023/04/14 02:01:49;;;;;;;6.65;3.53;;;;;;;3.69;100.00;95006.00;1038408;28;20275;-71
2023/04/14 02:02:20;;;;;;;8.07;3.30;;;;;;;3.67;100.00;94995.06;1034322;28;20040;-72
2023/04/14 02:02:53;;;;;;;10.20;5.10;;;;;;;3.67;100.00;95002.84;1034806;28;20100;-72
2023/04/14 02:03:24;;;;;;;7.28;3.90;;;;;;;3.60;100.00;94999.63;1034509;28;20816;-71
2023/04/14 02:03:55;;;;;;;5.80;3.70;;;;;;;3.62;100.00;95002.78;1033467;28;20272;-72
2023/04/14 02:04:25;;;;;;;5.97;4.13;;;;;;;3.63;100.00;95003.56;1029763;28;20864;-71
2023/04/14 02:04:56;;;;;;;10.77;4.93;;;;;;;3.63;100.00;94996.56;1031084;28;20010;-72
2023/04/14 02:05:26;;;;;;;7.90;3.80;;;;;;;3.66;100.00;95003.09;1030791;28;20030;-72
2023/04/14 02:05:57;;;;;;;9.18;4.00;;;;;;;3.60;100.00;94999.63;1034405;28;20483;-72
2023/04/14 02:06:27;;;;;;;6.65;3.30;;;;;;;3.66;100.00;95003.09;1022186;28;20050;-71
2023/04/14 02:06:58;;;;;;;7.15;3.25;;;;;;;3.66;100.00;95003.88;1034239;28;20087;-72
2023/04/14 02:07:28;;;;;;;6.18;3.50;;;;;;;3.70;100.00;95006.78;1030450;28;20455;-72
2023/04/14 02:07:59;;;;;;;7.57;4.00;;;;;;;3.62;100.00;94992.41;1026299;28;20385;-72
2023/04/14 02:08:30;;;;;;;12.13;4.25;;;;;;;3.67;100.00;95005.44;1022435;28;20035;-70
2023/04/14 02:09:01;;;;;;;6.53;3.53;;;;;;;3.67;100.00;95002.06;1038395;28;20056;-72
2023/04/14 02:09:31;;;;;;;7.28;3.50;;;;;;;3.68;100.00;94995.84;1034613;28;20046;-71
2023/04/14 02:10:03;;;;;;;6.45;3.63;;;;;;;3.68;100.00;94994.03;1030556;28;20026;-71
2023/04/14 02:10:34;;;;;;;6.78;3.97;;;;;;;3.69;100.00;94992.22;1031860;28;20041;-70
2023/04/14 02:11:05;;;;;;;9.23;3.80;;;;;;;3.69;100.00;94993.03;1030591;28;20525;-71
2023/04/14 02:11:35;;;;;;;8.77;3.67;;;;;;;3.70;100.00;94993.81;1030666;28;20093;-72
2023/04/14 02:12:06;;;;;;;7.55;3.85;;;;;;;3.69;100.00;94992.22;1030588;28;21004;-72
2023/04/14 02:12:38;;;;;;;8.55;3.83;;;;;;;3.71;100.00;94992.78;1026272;28;20094;-71
2023/04/14 02:13:09;;;;;;;6.10;3.85;;;;;;;3.67;100.00;94989.09;1034447;28;20030;-72
2023/04/14 02:13:39;;;;;;;9.07;3.83;;;;;;;3.64;100.00;94984.38;1030556;28;20672;-71
2023/04/14 02:14:10;;;;;;;9.55;3.85;;;;;;;3.67;100.00;94989.88;1033918;28;20265;-71
2023/04/14 02:14:40;;;;;;;9.93;4.18;;;;;;;3.62;100.00;94981.22;1021839;29;20369;-72
2023/04/14 02:15:14;;;;;;;6.75;3.40;;;;;;;3.65;100.00;94986.72;1028789;28;20375;-72
2023/04/14 02:15:47;;;;;;;7.63;4.20;;;;;;;3.63;100.00;94982.81;1032978;28;20036;-72
2023/04/14 02:16:17;;;;;;;8.75;5.63;;;;;;;3.64;100.00;94979.19;1025523;28;20695;-72
2023/04/14 02:16:48;;;;;;;7.68;4.50;;;;;;;3.65;100.00;94989.31;1034322;28;21048;-71
2023/04/14 02:17:18;;;;;;;6.93;4.05;;;;;;;3.66;100.00;94987.53;1036769;28;20032;-71
2023/04/14 02:17:49;;;;;;;6.85;4.05;;;;;;;3.62;100.00;94991.59;1038337;28;20028;-70
2023/04/14 02:18:21;;;;;;;6.57;3.75;;;;;;;3.64;100.00;94989.56;1038350;28;20071;-70
2023/04/14 02:18:51;;;;;;;10.00;4.70;;;;;;;3.58;100.00;94982.72;1038351;28;20032;-74
2023/04/14 02:19:22;;;;;;;6.85;4.50;;;;;;;3.60;100.00;94983.28;1038823;28;20263;-71
2023/04/14 02:19:52;;;;;;;8.18;4.50;;;;;;;3.54;100.00;94974.63;1030302;28;20015;-72
2023/04/14 02:20:23;;;;;;;11.57;4.50;;;;;;;3.62;100.00;94984.63;1034447;28;20025;-73
2023/04/14 02:20:53;;;;;;;9.77;4.72;;;;;;;3.63;100.00;94988.78;1038212;28;20021;-73
2023/04/14 02:21:24;;;;;;;8.98;4.28;;;;;;;3.62;100.00;94991.59;1030144;28;20025;-72
2023/04/14 02:21:55;;;;;;;7.30;4.28;;;;;;;3.58;100.00;94988.69;1035302;28;20021;-72
2023/04/14 02:22:25;;;;;;;10.85;4.85;;;;;;;3.59;100.00;94992.06;1025435;28;20058;-71
2023/04/14 02:22:56;;;;;;;9.80;4.40;;;;;;;3.60;100.00;94983.28;1028258;28;20027;-72
2023/04/14 02:23:27;;;;;;;6.68;4.35;;;;;;;3.54;100.00;94985.00;1031348;28;20026;-72
2023/04/14 02:23:57;;;;;;;13.98;4.90;;;;;;;3.53;100.00;94994.59;1026771;28;20069;-72
2023/04/14 02:24:28;;;;;;;8.95;4.07;;;;;;;3.53;100.00;94989.41;1038204;28;20585;-71
2023/04/14 02:24:58;;;;;;;8.75;4.22;;;;;;;3.56;100.00;94992.56;1030514;28;20514;-72
2023/04/14 02:25:31;;;;;;;10.00;4.18;;;;;;;3.53;100.00;94988.63;1030945;28;20038;-73
2023/04/14 02:26:08;;;;;;;9.27;4.55;;;;;;;3.51;100.00;94996.63;1031349;28;20081;-73
2023/04/14 02:26:41;;;;;;;9.95;3.92;;;;;;;3.52;100.00;94993.03;1032315;28;20316;-71
2023/04/14 02:27:15;;;;;;;10.52;4.70;;;;;;;3.54;100.00;95001.34;1039183;28;20260;-72
2023/04/14 02:27:48;;;;;;;13.05;4.45;;;;;;;3.51;100.00;94993.25;1031057;28;20269;-72
2023/04/14 02:28:19;;;;;;;9.80;4.65;;;;;;;3.45;100.00;94984.59;1035123;28;20280;-73
2023/04/14 02:28:52;;;;;;;7.10;4.05;;;;;;;3.53;100.00;94997.19;1030968;28;20269;-73
2023/04/14 02:29:23;;;;;;;12.60;4.82;;;;;;;3.48;100.00;94994.50;1031012;28;20340;-73
2023/04/14 02:29:53;;;;;;;7.65;4.20;;;;;;;3.49;100.00;94988.31;1031913;28;20288;-73
2023/04/14 02:30:29;;;;;;;10.00;4.35;;;;;;;3.53;100.00;94992.00;1023208;29;20027;-72
2023/04/14 02:31:00;;;;;;;10.50;4.47;;;;;;;3.53;100.00;94991.22;1032444;28;20029;-73
2023/04/14 02:31:31;;;;;;;9.70;4.25;;;;;;;3.54;100.00;94990.19;1030978;28;20274;-72
2023/04/14 02:32:05;;;;;;;8.32;4.20;;;;;;;3.56;100.00;94989.97;1035158;28;20813;-73
2023/04/14 02:32:35;;;;;;;9.57;4.38;;;;;;;3.56;100.00;94989.97;1031147;28;20463;-73
2023/04/14 02:33:08;;;;;;;7.78;4.20;;;;;;;3.56;100.00;94993.34;1036649;28;20268;-72
2023/04/14 02:33:38;;;;;;;10.75;4.00;;;;;;;3.57;100.00;94994.13;1034927;28;20026;-72
2023/04/14 02:34:10;;;;;;;7.55;4.70;;;;;;;3.56;100.00;94993.34;1035323;28;20268;-73